createdAt,value
2019-04-26T00:00:42.489Z,12.40
2019-04-26T00:01:21.618Z,12.40
2019-04-26T00:02:04.934Z,12.40
2019-04-26T00:02:50.028Z,12.40
2019-04-26T00:03:32.523Z,12.40
2019-04-26T00:04:10.260Z,12.40
2019-04-26T00:04:47.718Z,12.40
2019-04-26T00:05:34.265Z,12.40
2019-04-26T00:06:05.816Z,12.40
2019-04-26T00:06:43.056Z,12.40
2019-04-26T00:07:20.867Z,12.40
2019-04-26T00:07:58.035Z,12.40
2019-04-26T00:08:35.991Z,12.40
2019-04-26T00:09:24.369Z,12.40
2019-04-26T00:10:03.624Z,12.40
2019-04-26T00:10:49.934Z,12.40
2019-04-26T00:11:46.299Z,12.40
2019-04-26T00:12:40.730Z,12.40
2019-04-26T00:13:52.718Z,12.40
2019-04-26T00:14:47.695Z,12.40
2019-04-26T00:15:42.905Z,12.40
2019-04-26T00:16:28.678Z,12.40
2019-04-26T00:17:17.784Z,12.40
2019-04-26T00:17:57.222Z,12.40
2019-04-26T00:18:34.982Z,12.40
2019-04-26T00:19:13.793Z,12.40
2019-04-26T00:19:51.042Z,12.40
2019-04-26T00:20:28.290Z,12.40
2019-04-26T00:21:06.234Z,12.40
2019-04-26T00:21:43.757Z,12.40
2019-04-26T00:22:21.654Z,12.40
2019-04-26T00:22:58.864Z,12.40
2019-04-26T00:23:36.136Z,12.40
2019-04-26T00:24:13.165Z,12.40
2019-04-26T00:24:50.437Z,12.40
2019-04-26T00:25:28.377Z,12.40
2019-04-26T00:26:06.012Z,12.40
2019-04-26T00:26:45.642Z,12.40
2019-04-26T00:27:25.882Z,12.40
2019-04-26T00:28:03.278Z,12.40
2019-04-26T00:28:42.319Z,12.40
2019-04-26T00:29:21.156Z,12.40
2019-04-26T00:29:58.870Z,12.40
2019-04-26T00:30:36.275Z,12.40
2019-04-26T00:31:17.185Z,12.40
2019-04-26T00:31:55.114Z,12.30
2019-04-26T00:32:34.400Z,12.40
2019-04-26T00:33:12.550Z,12.30
2019-04-26T00:33:50.696Z,12.30
2019-04-26T00:34:28.067Z,12.30
2019-04-26T00:35:06.422Z,12.30
2019-04-26T00:35:47.650Z,12.30
2019-04-26T00:36:22.917Z,12.30
2019-04-26T00:37:01.261Z,12.30
2019-04-26T00:37:38.384Z,12.30
2019-04-26T00:38:16.091Z,12.30
2019-04-26T00:38:53.250Z,12.30
2019-04-26T00:39:32.380Z,12.30
2019-04-26T00:40:10.347Z,12.30
2019-04-26T00:40:49.701Z,12.30
2019-04-26T00:41:28.304Z,12.30
2019-04-26T00:42:08.786Z,12.30
2019-04-26T00:42:46.689Z,12.30
2019-04-26T00:43:25.108Z,12.30
2019-04-26T00:44:03.626Z,12.20
2019-04-26T00:44:41.450Z,12.20
2019-04-26T00:45:20.984Z,12.20
2019-04-26T00:46:00.044Z,12.20
2019-04-26T00:46:39.469Z,12.20
2019-04-26T00:47:17.623Z,12.20
2019-04-26T00:47:56.198Z,12.20
2019-04-26T00:48:34.960Z,12.20
2019-04-26T00:49:13.768Z,12.20
2019-04-26T00:49:51.372Z,12.20
2019-04-26T00:50:29.155Z,12.20
2019-04-26T00:51:08.630Z,12.20
2019-04-26T00:51:46.877Z,12.20
2019-04-26T00:52:25.619Z,12.20
2019-04-26T00:53:04.231Z,12.20
2019-04-26T00:53:44.080Z,12.20
2019-04-26T00:54:25.367Z,12.20
2019-04-26T00:55:03.030Z,12.20
2019-04-26T00:55:41.093Z,12.20
2019-04-26T00:56:18.801Z,12.20
2019-04-26T00:56:58.994Z,12.10
2019-04-26T00:57:36.454Z,12.20
2019-04-26T00:58:16.574Z,12.20
2019-04-26T00:58:54.811Z,12.20
2019-04-26T00:59:33.070Z,12.20
2019-04-26T01:00:12.601Z,12.20
2019-04-26T01:00:50.062Z,12.20
2019-04-26T01:01:29.183Z,12.20
2019-04-26T01:02:13.010Z,12.10
2019-04-26T01:02:53.386Z,12.10
2019-04-26T01:03:30.420Z,12.20
2019-04-26T01:04:10.466Z,12.10
2019-04-26T01:04:47.938Z,12.10
2019-04-26T01:05:25.365Z,12.20
2019-04-26T01:06:05.049Z,12.20
2019-04-26T01:06:44.582Z,12.20
2019-04-26T01:07:21.257Z,12.20
2019-04-26T01:07:58.478Z,12.20
2019-04-26T01:08:35.680Z,12.20
2019-04-26T01:09:13.260Z,12.20
2019-04-26T01:09:50.738Z,12.20
2019-04-26T01:10:28.125Z,12.20
2019-04-26T01:11:05.512Z,12.10
2019-04-26T01:11:42.396Z,12.10
2019-04-26T01:12:19.794Z,12.10
2019-04-26T01:12:57.000Z,12.20
2019-04-26T01:13:35.024Z,12.20
2019-04-26T01:14:12.264Z,12.20
2019-04-26T01:14:49.465Z,12.20
2019-04-26T01:15:26.622Z,12.20
2019-04-26T01:16:04.136Z,12.20
2019-04-26T01:16:41.775Z,12.20
2019-04-26T01:17:20.329Z,12.20
2019-04-26T01:17:58.010Z,12.20
2019-04-26T01:18:35.696Z,12.20
2019-04-26T01:19:17.089Z,12.20
2019-04-26T01:19:55.438Z,12.20
2019-04-26T01:20:35.904Z,12.20
2019-04-26T01:21:17.092Z,12.20
2019-04-26T01:22:00.334Z,12.20
2019-04-26T01:22:42.441Z,12.20
2019-04-26T01:23:22.989Z,12.20
2019-04-26T01:24:03.982Z,12.20
2019-04-26T01:24:44.920Z,12.20
2019-04-26T01:25:43.041Z,12.20
2019-04-26T01:26:27.336Z,12.20
2019-04-26T01:27:07.159Z,12.20
2019-04-26T01:27:47.407Z,12.20
2019-04-26T01:28:35.070Z,12.20
2019-04-26T01:29:14.940Z,12.20
2019-04-26T01:29:55.488Z,12.20
2019-04-26T01:30:35.646Z,12.20
2019-04-26T01:31:15.664Z,12.20
2019-04-26T01:32:10.047Z,12.20
2019-04-26T01:32:49.190Z,12.10
2019-04-26T01:33:26.364Z,12.10
2019-04-26T01:34:04.441Z,12.10
2019-04-26T01:34:44.132Z,12.10
2019-04-26T01:35:24.340Z,12.10
2019-04-26T01:36:12.417Z,12.10
2019-04-26T01:36:41.998Z,12.10
2019-04-26T01:37:20.522Z,12.10
2019-04-26T01:38:00.340Z,12.10
2019-04-26T01:38:37.463Z,12.10
2019-04-26T01:39:19.686Z,12.10
2019-04-26T01:40:02.841Z,12.10
2019-04-26T01:40:40.937Z,12.10
2019-04-26T01:41:28.215Z,12.00
2019-04-26T01:42:12.786Z,12.10
2019-04-26T01:43:00.304Z,12.00
2019-04-26T01:44:02.440Z,12.10
2019-04-26T01:44:53.008Z,12.00
2019-04-26T01:45:46.195Z,12.00
2019-04-26T01:46:31.021Z,12.00
2019-04-26T01:47:08.406Z,12.00
2019-04-26T01:48:07.788Z,12.00
2019-04-26T01:48:52.080Z,12.00
2019-04-26T01:49:29.528Z,12.00
2019-04-26T01:50:08.234Z,12.00
2019-04-26T01:50:45.508Z,12.00
2019-04-26T01:51:29.981Z,12.00
2019-04-26T01:52:13.505Z,12.00
2019-04-26T01:52:51.048Z,11.90
2019-04-26T01:53:28.791Z,12.00
2019-04-26T01:54:06.928Z,11.90
2019-04-26T01:54:46.320Z,11.90
2019-04-26T01:55:25.066Z,11.90
2019-04-26T01:56:02.224Z,11.90
2019-04-26T01:56:43.044Z,11.90
2019-04-26T01:57:23.740Z,11.90
2019-04-26T01:58:04.601Z,11.90
2019-04-26T01:58:42.068Z,11.90
2019-04-26T01:59:21.006Z,11.90
2019-04-26T02:00:07.491Z,11.90
2019-04-26T02:00:55.697Z,11.90
2019-04-26T02:02:04.618Z,11.90
2019-04-26T02:02:53.502Z,11.90
2019-04-26T02:03:31.853Z,11.90
2019-04-26T02:04:09.999Z,11.80
2019-04-26T02:04:48.988Z,11.80
2019-04-26T02:05:27.907Z,11.80
2019-04-26T02:06:05.536Z,11.80
2019-04-26T02:06:43.093Z,11.80
2019-04-26T02:07:41.106Z,11.80
2019-04-26T02:08:19.264Z,11.80
2019-04-26T02:08:56.796Z,11.80
2019-04-26T02:09:36.336Z,11.80
2019-04-26T02:10:19.157Z,11.80
2019-04-26T02:10:56.964Z,11.80
2019-04-26T02:11:34.208Z,11.80
2019-04-26T02:12:11.508Z,11.80
2019-04-26T02:12:49.499Z,11.70
2019-04-26T02:13:30.941Z,11.70
2019-04-26T02:14:08.816Z,11.80
2019-04-26T02:14:46.373Z,11.70
2019-04-26T02:15:27.195Z,11.70
2019-04-26T02:16:04.864Z,11.70
2019-04-26T02:16:42.390Z,11.70
2019-04-26T02:17:19.935Z,11.70
2019-04-26T02:17:59.584Z,11.70
2019-04-26T02:18:42.067Z,11.70
2019-04-26T02:19:19.924Z,11.70
2019-04-26T02:19:57.415Z,11.70
2019-04-26T02:20:56.858Z,11.70
2019-04-26T02:21:39.653Z,11.70
2019-04-26T02:22:25.833Z,11.70
2019-04-26T02:23:09.348Z,11.70
2019-04-26T02:23:51.589Z,11.70
2019-04-26T02:24:35.292Z,11.70
2019-04-26T02:25:12.144Z,11.70
2019-04-26T02:25:49.516Z,11.60
2019-04-26T02:26:53.487Z,11.70
2019-04-26T02:27:32.532Z,11.70
2019-04-26T02:28:10.457Z,11.70
2019-04-26T02:28:48.688Z,11.60
2019-04-26T02:29:30.443Z,11.60
2019-04-26T02:30:08.923Z,11.70
2019-04-26T02:30:46.520Z,11.60
2019-04-26T02:31:26.660Z,11.70
2019-04-26T02:32:06.396Z,11.60
2019-04-26T02:32:44.381Z,11.70
2019-04-26T02:33:23.286Z,11.60
2019-04-26T02:34:01.699Z,11.60
2019-04-26T02:34:39.465Z,11.60
2019-04-26T02:35:17.127Z,11.60
2019-04-26T02:35:54.745Z,11.60
2019-04-26T02:36:47.880Z,11.60
2019-04-26T02:37:14.108Z,11.60
2019-04-26T02:37:52.094Z,11.60
2019-04-26T02:38:31.440Z,11.60
2019-04-26T02:39:21.517Z,11.60
2019-04-26T02:39:59.586Z,11.60
2019-04-26T02:40:37.513Z,11.60
2019-04-26T02:41:16.174Z,11.60
2019-04-26T02:41:57.444Z,11.60
2019-04-26T02:42:41.302Z,11.60
2019-04-26T02:43:22.223Z,11.60
2019-04-26T02:44:02.651Z,11.60
2019-04-26T02:44:49.764Z,11.60
2019-04-26T02:46:15.029Z,11.60
2019-04-26T02:47:16.902Z,11.60
2019-04-26T02:48:15.474Z,11.50
2019-04-26T02:49:35.070Z,11.50
2019-04-26T02:50:19.897Z,11.50
2019-04-26T02:51:04.122Z,11.50
2019-04-26T02:51:46.930Z,11.50
2019-04-26T02:52:46.643Z,11.50
2019-04-26T02:53:55.487Z,11.50
2019-04-26T02:54:47.672Z,11.50
2019-04-26T02:55:53.750Z,11.50
2019-04-26T02:56:40.738Z,11.50
2019-04-26T02:57:31.009Z,11.50
2019-04-26T02:58:20.821Z,11.50
2019-04-26T02:59:44.650Z,11.50
2019-04-26T03:00:21.562Z,11.50
2019-04-26T03:01:00.313Z,11.50
2019-04-26T03:01:38.743Z,11.50
2019-04-26T03:02:26.644Z,11.50
2019-04-26T03:03:08.055Z,11.50
2019-04-26T03:03:53.623Z,11.50
2019-04-26T03:04:33.780Z,11.50
2019-04-26T03:05:12.335Z,11.50
2019-04-26T03:05:51.718Z,11.50
2019-04-26T03:06:34.282Z,11.50
2019-04-26T03:07:17.507Z,11.50
2019-04-26T03:08:02.873Z,11.50
2019-04-26T03:08:42.643Z,11.50
2019-04-26T03:09:38.913Z,11.40
2019-04-26T03:10:16.824Z,11.50
2019-04-26T03:10:59.921Z,11.40
2019-04-26T03:11:40.853Z,11.50
2019-04-26T03:12:39.512Z,11.50
2019-04-26T03:13:43.860Z,11.40
2019-04-26T03:14:45.961Z,11.40
2019-04-26T03:15:45.058Z,11.40
2019-04-26T03:16:47.523Z,11.40
2019-04-26T03:17:43.331Z,11.40
2019-04-26T03:18:41.513Z,11.40
2019-04-26T03:19:31.696Z,11.40
2019-04-26T03:20:14.130Z,11.40
2019-04-26T03:20:58.335Z,11.40
2019-04-26T03:21:55.951Z,11.40
2019-04-26T03:22:47.459Z,11.40
2019-04-26T03:23:55.561Z,11.40
2019-04-26T03:24:22.917Z,11.40
2019-04-26T03:25:17.043Z,11.40
2019-04-26T03:26:17.792Z,11.40
2019-04-26T03:27:05.819Z,11.40
2019-04-26T03:28:32.733Z,11.40
2019-04-26T03:29:26.717Z,11.40
2019-04-26T03:30:19.814Z,11.30
2019-04-26T03:31:04.944Z,11.40
2019-04-26T03:32:45.711Z,11.30
2019-04-26T03:33:52.597Z,11.40
2019-04-26T03:34:53.700Z,11.40
2019-04-26T03:35:48.473Z,11.40
2019-04-26T03:36:46.017Z,11.40
2019-04-26T03:37:47.907Z,11.40
2019-04-26T03:38:36.236Z,11.40
2019-04-26T03:39:26.737Z,11.40
2019-04-26T03:40:38.405Z,11.40
2019-04-26T03:42:03.409Z,11.30
2019-04-26T03:43:10.429Z,11.30
2019-04-26T03:43:57.858Z,11.40
2019-04-26T03:44:44.165Z,11.40
2019-04-26T03:45:46.168Z,11.40
2019-04-26T03:46:59.585Z,11.40
2019-04-26T03:47:43.730Z,11.30
2019-04-26T03:48:58.954Z,11.40
2019-04-26T03:50:02.951Z,11.40
2019-04-26T03:50:48.164Z,11.40
2019-04-26T03:51:40.737Z,11.40
2019-04-26T03:52:46.993Z,11.40
2019-04-26T03:53:40.394Z,11.40
2019-04-26T03:54:22.422Z,11.40
2019-04-26T03:55:04.292Z,11.40
2019-04-26T03:56:26.105Z,11.40
2019-04-26T03:57:17.592Z,11.40
2019-04-26T03:57:59.494Z,11.40
2019-04-26T03:59:18.013Z,11.40
2019-04-26T04:00:25.904Z,11.40
2019-04-26T04:01:09.169Z,11.40
2019-04-26T04:02:06.980Z,11.40
2019-04-26T04:02:58.570Z,11.40
2019-04-26T04:04:04.347Z,11.40
2019-04-26T04:04:58.806Z,11.40
2019-04-26T04:05:45.562Z,11.50
2019-04-26T04:06:28.819Z,11.50
2019-04-26T04:07:09.268Z,11.50
2019-04-26T04:07:51.464Z,11.50
2019-04-26T04:08:42.302Z,11.50
2019-04-26T04:09:22.325Z,11.50
2019-04-26T04:10:05.802Z,11.50
2019-04-26T04:10:52.091Z,11.50
2019-04-26T04:11:37.750Z,11.50
2019-04-26T04:12:33.436Z,11.50
2019-04-26T04:13:25.800Z,11.50
2019-04-26T04:14:08.838Z,11.50
2019-04-26T04:14:57.000Z,11.60
2019-04-26T04:15:42.788Z,11.50
2019-04-26T04:16:32.372Z,11.60
2019-04-26T04:17:27.679Z,11.60
2019-04-26T04:18:11.084Z,11.60
2019-04-26T04:18:54.085Z,11.60
2019-04-26T04:20:18.386Z,11.60
2019-04-26T04:21:25.857Z,11.60
2019-04-26T04:22:06.673Z,11.60
2019-04-26T04:22:49.399Z,11.60
2019-04-26T04:23:45.059Z,11.70
2019-04-26T04:24:29.963Z,11.70
2019-04-26T04:25:10.998Z,11.70
2019-04-26T04:25:51.476Z,11.70
2019-04-26T04:26:41.649Z,11.70
2019-04-26T04:27:47.268Z,11.70
2019-04-26T04:29:06.032Z,11.60
2019-04-26T04:30:05.301Z,11.70
2019-04-26T04:30:56.605Z,11.60
2019-04-26T04:31:40.367Z,11.70
2019-04-26T04:32:43.789Z,11.70
2019-04-26T04:33:43.779Z,11.60
2019-04-26T04:34:44.015Z,11.70
2019-04-26T04:35:24.984Z,11.70
2019-04-26T04:36:10.739Z,11.70
2019-04-26T04:36:53.276Z,11.70
2019-04-26T04:37:34.258Z,11.70
2019-04-26T04:38:21.715Z,11.70
2019-04-26T04:39:13.014Z,11.70
2019-04-26T04:40:17.291Z,11.70
2019-04-26T04:41:15.740Z,11.70
2019-04-26T04:42:28.448Z,11.80
2019-04-26T04:43:30.818Z,11.70
2019-04-26T04:44:24.926Z,11.80
2019-04-26T04:45:27.568Z,11.80
2019-04-26T04:46:38.710Z,11.80
2019-04-26T04:47:32.889Z,11.90
2019-04-26T04:48:31.686Z,11.90
2019-04-26T04:49:28.671Z,11.90
2019-04-26T04:50:35.981Z,12.00
2019-04-26T04:51:36.079Z,12.00
2019-04-26T04:52:24.104Z,12.00
2019-04-26T04:53:19.129Z,12.00
2019-04-26T04:54:02.516Z,12.00
2019-04-26T04:54:44.722Z,12.10
2019-04-26T04:55:50.091Z,12.10
2019-04-26T04:57:04.954Z,12.20
2019-04-26T04:58:16.544Z,12.30
2019-04-26T04:58:56.962Z,12.40
2019-04-26T05:00:03.990Z,12.50
2019-04-26T05:01:48.267Z,12.60
2019-04-26T05:02:42.427Z,12.80
2019-04-26T05:03:40.674Z,13.00
2019-04-26T05:04:32.617Z,13.00
2019-04-26T05:05:49.055Z,13.20
2019-04-26T05:06:49.114Z,13.20
2019-04-26T05:07:40.305Z,13.30
2019-04-26T05:08:42.888Z,13.20
2019-04-26T05:09:33.353Z,13.20
2019-04-26T05:10:21.890Z,13.30
2019-04-26T05:11:10.425Z,13.30
2019-04-26T05:11:56.712Z,13.30
2019-04-26T05:12:41.626Z,13.40
2019-04-26T05:13:50.177Z,13.50
2019-04-26T05:14:52.277Z,13.50
2019-04-26T05:16:19.061Z,13.60
2019-04-26T05:17:49.625Z,13.60
2019-04-26T05:19:26.056Z,13.60
2019-04-26T05:20:29.370Z,13.60
2019-04-26T05:21:40.233Z,13.50
2019-04-26T05:22:57.103Z,13.50
2019-04-26T05:24:00.170Z,13.50
2019-04-26T05:24:49.838Z,13.50
2019-04-26T05:26:22.102Z,13.60
2019-04-26T05:27:58.403Z,13.60
2019-04-26T05:29:02.667Z,13.60
2019-04-26T05:30:16.190Z,13.70
2019-04-26T05:31:25.106Z,13.70
2019-04-26T05:32:52.653Z,13.70
2019-04-26T05:33:58.430Z,13.70
2019-04-26T05:34:52.839Z,13.70
2019-04-26T05:35:49.196Z,13.70
2019-04-26T05:36:52.764Z,13.80
2019-04-26T05:38:03.157Z,13.80
2019-04-26T05:39:09.092Z,13.80
2019-04-26T05:40:15.308Z,13.80
2019-04-26T05:41:31.275Z,13.80
2019-04-26T05:42:48.272Z,13.70
2019-04-26T05:43:46.010Z,13.70
2019-04-26T05:45:10.618Z,13.70
2019-04-26T05:46:12.918Z,13.70
2019-04-26T05:47:40.778Z,13.50
2019-04-26T05:48:46.324Z,13.50
2019-04-26T05:50:22.880Z,13.50
2019-04-26T05:51:30.922Z,13.60
2019-04-26T05:52:53.126Z,13.60
2019-04-26T05:54:35.010Z,13.50
2019-04-26T05:55:47.700Z,13.50
2019-04-26T05:56:44.304Z,13.50
2019-04-26T05:57:50.985Z,13.60
2019-04-26T05:58:40.317Z,13.60
2019-04-26T05:59:26.818Z,13.60
2019-04-26T06:00:30.952Z,13.70
2019-04-26T06:01:56.971Z,13.70
2019-04-26T06:03:03.207Z,13.80
2019-04-26T06:04:23.135Z,13.90
2019-04-26T06:05:44.789Z,14.00
2019-04-26T06:06:35.174Z,14.00
2019-04-26T06:07:26.790Z,14.00
2019-04-26T06:08:36.012Z,14.00
2019-04-26T06:09:41.652Z,13.90
2019-04-26T06:10:41.762Z,13.90
2019-04-26T06:11:28.352Z,13.90
2019-04-26T06:12:29.136Z,13.80
2019-04-26T06:14:05.686Z,13.80
2019-04-26T06:15:07.184Z,13.70
2019-04-26T06:16:08.992Z,13.70
2019-04-26T06:17:17.736Z,13.70
2019-04-26T06:18:24.194Z,13.70
2019-04-26T06:19:20.066Z,13.70
2019-04-26T06:20:22.722Z,13.80
2019-04-26T06:21:02.140Z,13.80
2019-04-26T06:22:07.301Z,13.70
2019-04-26T06:23:17.781Z,13.80
2019-04-26T06:24:25.264Z,13.70
2019-04-26T06:25:26.195Z,13.70
2019-04-26T06:26:36.130Z,13.80
2019-04-26T06:27:42.244Z,13.70
2019-04-26T06:28:50.374Z,13.80
2019-04-26T06:29:49.993Z,13.80
2019-04-26T06:30:45.349Z,13.80
2019-04-26T06:31:29.104Z,13.80
2019-04-26T06:32:28.375Z,13.80
2019-04-26T06:33:11.700Z,13.80
2019-04-26T06:34:31.514Z,13.80
2019-04-26T06:35:14.123Z,13.80
2019-04-26T06:35:59.851Z,13.80
2019-04-26T06:36:55.988Z,13.80
2019-04-26T06:37:49.420Z,13.80
2019-04-26T06:39:12.981Z,13.70
2019-04-26T06:40:14.882Z,13.70
2019-04-26T06:42:00.783Z,13.80
2019-04-26T06:43:37.798Z,13.80
2019-04-26T06:44:19.805Z,13.90
2019-04-26T06:45:17.925Z,14.00
2019-04-26T06:46:33.417Z,14.10
2019-04-26T06:47:23.368Z,14.10
2019-04-26T06:48:08.754Z,14.10
2019-04-26T06:49:10.583Z,14.10
2019-04-26T06:50:27.814Z,14.10
2019-04-26T06:51:24.095Z,14.20
2019-04-26T06:52:01.080Z,14.20
2019-04-26T06:52:44.528Z,14.20
2019-04-26T06:53:44.245Z,14.20
2019-04-26T06:54:33.145Z,14.20
2019-04-26T06:55:27.220Z,14.30
2019-04-26T06:56:31.312Z,14.20
2019-04-26T06:57:41.054Z,14.20
2019-04-26T06:59:03.611Z,14.30
2019-04-26T06:59:55.028Z,14.40
2019-04-26T07:00:44.660Z,14.50
2019-04-26T07:01:49.066Z,14.60
2019-04-26T07:02:42.460Z,14.60
2019-04-26T07:03:33.261Z,14.60
2019-04-26T07:04:30.549Z,14.60
2019-04-26T07:05:35.163Z,14.60
2019-04-26T07:06:16.170Z,14.60
2019-04-26T07:07:13.830Z,14.70
2019-04-26T07:08:28.944Z,14.70
2019-04-26T07:09:11.646Z,14.70
2019-04-26T07:10:25.466Z,14.70
2019-04-26T07:11:59.381Z,14.70
2019-04-26T07:13:00.968Z,14.70
2019-04-26T07:14:02.732Z,14.70
2019-04-26T07:15:05.886Z,14.70
2019-04-26T07:15:50.262Z,14.80
2019-04-26T07:16:40.975Z,14.90
2019-04-26T07:17:23.550Z,14.90
2019-04-26T07:18:20.326Z,15.00
2019-04-26T07:19:22.766Z,15.10
2019-04-26T07:20:36.494Z,15.10
2019-04-26T07:21:43.154Z,15.10
2019-04-26T07:22:45.108Z,15.10
2019-04-26T07:24:22.735Z,15.10
2019-04-26T07:25:28.330Z,15.10
2019-04-26T07:26:50.162Z,15.10
2019-04-26T07:28:03.708Z,15.10
2019-04-26T07:28:47.092Z,15.20
2019-04-26T07:29:51.286Z,15.20
2019-04-26T07:31:02.559Z,15.20
2019-04-26T07:31:59.258Z,15.20
2019-04-26T07:33:12.613Z,15.20
2019-04-26T07:34:16.592Z,15.20
2019-04-26T07:35:30.240Z,15.20
2019-04-26T07:36:22.575Z,15.20
2019-04-26T07:37:43.580Z,15.10
2019-04-26T07:39:20.340Z,15.10
2019-04-26T07:40:56.535Z,15.10
2019-04-26T07:42:07.460Z,15.10
2019-04-26T07:43:18.937Z,15.10
2019-04-26T07:44:24.728Z,15.10
2019-04-26T07:45:18.948Z,15.20
2019-04-26T07:46:19.612Z,15.20
2019-04-26T07:47:45.692Z,15.30
2019-04-26T07:48:37.915Z,15.30
2019-04-26T07:49:58.914Z,15.20
2019-04-26T07:51:15.204Z,15.20
2019-04-26T07:52:15.746Z,15.20
2019-04-26T07:53:34.286Z,15.30
2019-04-26T07:55:10.920Z,15.30
2019-04-26T07:56:02.338Z,15.40
2019-04-26T07:57:22.930Z,15.40
2019-04-26T07:58:37.930Z,15.40
2019-04-26T08:00:01.242Z,15.30
2019-04-26T08:00:50.386Z,15.40
2019-04-26T08:02:09.090Z,15.40
2019-04-26T08:03:15.030Z,15.40
2019-04-26T08:04:03.810Z,15.50
2019-04-26T08:04:47.761Z,15.50
2019-04-26T08:05:41.277Z,15.40
2019-04-26T08:06:34.690Z,15.30
2019-04-26T08:07:20.049Z,15.30
2019-04-26T08:07:59.656Z,15.30
2019-04-26T08:08:48.746Z,15.30
2019-04-26T08:09:29.498Z,15.30
2019-04-26T08:10:10.704Z,15.30
2019-04-26T08:11:01.048Z,15.30
2019-04-26T08:11:45.900Z,15.30
2019-04-26T08:12:26.555Z,15.20
2019-04-26T08:13:08.103Z,15.10
2019-04-26T08:14:31.239Z,15.10
2019-04-26T08:15:34.816Z,15.10
2019-04-26T08:16:40.969Z,15.00
2019-04-26T08:17:43.539Z,15.00
2019-04-26T08:18:30.489Z,15.00
2019-04-26T08:19:14.705Z,15.00
2019-04-26T08:20:08.150Z,15.10
2019-04-26T08:20:51.752Z,15.00
2019-04-26T08:21:36.630Z,15.00
2019-04-26T08:22:23.058Z,15.00
2019-04-26T08:23:02.748Z,14.90
2019-04-26T08:23:56.503Z,15.00
2019-04-26T08:24:35.216Z,15.00
2019-04-26T08:25:14.578Z,15.00
2019-04-26T08:25:55.162Z,15.00
2019-04-26T08:26:35.296Z,15.00
2019-04-26T08:27:23.274Z,15.00
2019-04-26T08:28:02.561Z,15.00
2019-04-26T08:28:46.015Z,15.00
2019-04-26T08:29:29.890Z,14.90
2019-04-26T08:30:16.093Z,14.90
2019-04-26T08:30:55.033Z,14.80
2019-04-26T08:31:35.202Z,14.80
2019-04-26T08:32:20.716Z,14.80
2019-04-26T08:33:07.528Z,14.90
2019-04-26T08:33:49.879Z,14.90
2019-04-26T08:34:33.733Z,14.90
2019-04-26T08:35:21.903Z,14.80
2019-04-26T08:36:03.113Z,14.80
2019-04-26T08:36:52.391Z,14.80
2019-04-26T08:38:08.022Z,14.80
2019-04-26T08:38:40.280Z,14.90
2019-04-26T08:39:32.505Z,14.80
2019-04-26T08:40:05.907Z,14.80
2019-04-26T08:40:44.428Z,14.80
2019-04-26T08:41:23.529Z,14.90
2019-04-26T08:42:02.288Z,15.00
2019-04-26T08:42:53.320Z,15.00
2019-04-26T08:44:05.727Z,15.10
2019-04-26T08:44:58.796Z,15.10
2019-04-26T08:46:03.269Z,15.00
2019-04-26T08:47:06.085Z,15.00
2019-04-26T08:47:54.206Z,15.00
2019-04-26T08:48:45.879Z,15.10
2019-04-26T08:49:54.092Z,15.00
2019-04-26T08:50:37.001Z,15.00
2019-04-26T08:51:20.478Z,15.00
2019-04-26T08:52:00.201Z,15.00
2019-04-26T08:52:41.861Z,14.90
2019-04-26T08:53:20.240Z,14.80
2019-04-26T08:53:59.531Z,14.80
2019-04-26T08:54:42.192Z,14.80
2019-04-26T08:55:21.592Z,14.80
2019-04-26T08:56:01.851Z,14.80
2019-04-26T08:56:42.783Z,14.80
2019-04-26T08:57:33.031Z,14.80
2019-04-26T08:58:15.828Z,14.80
2019-04-26T08:58:56.366Z,14.90
2019-04-26T08:59:38.037Z,14.90
2019-04-26T09:00:35.647Z,14.90
2019-04-26T09:01:28.179Z,14.90
2019-04-26T09:02:20.710Z,15.00
2019-04-26T09:03:15.998Z,15.00
2019-04-26T09:03:59.039Z,15.00
2019-04-26T09:04:47.526Z,15.00
2019-04-26T09:05:49.978Z,15.00
2019-04-26T09:06:39.794Z,15.10
2019-04-26T09:07:22.855Z,15.10
2019-04-26T09:08:04.011Z,15.20
2019-04-26T09:08:45.014Z,15.30
2019-04-26T09:09:26.677Z,15.40
2019-04-26T09:10:11.150Z,15.40
2019-04-26T09:10:48.728Z,15.50
2019-04-26T09:11:33.534Z,15.50
2019-04-26T09:12:22.466Z,15.50
2019-04-26T09:12:55.672Z,15.50
2019-04-26T09:13:36.503Z,15.50
2019-04-26T09:14:17.495Z,15.50
2019-04-26T09:14:57.869Z,15.40
2019-04-26T09:16:04.048Z,15.40
2019-04-26T09:16:50.085Z,15.30
2019-04-26T09:17:27.833Z,15.30
2019-04-26T09:18:06.106Z,15.30
2019-04-26T09:18:52.356Z,15.40
2019-04-26T09:19:30.446Z,15.40
2019-04-26T09:20:10.692Z,15.40
2019-04-26T09:20:56.818Z,15.50
2019-04-26T09:21:47.545Z,15.60
2019-04-26T09:22:42.051Z,15.50
2019-04-26T09:23:55.806Z,15.40
2019-04-26T09:24:55.144Z,15.30
2019-04-26T09:25:39.340Z,15.20
2019-04-26T09:26:22.111Z,15.20
2019-04-26T09:27:09.415Z,15.30
2019-04-26T09:27:53.335Z,15.30
2019-04-26T09:28:47.965Z,15.30
2019-04-26T09:29:32.182Z,15.40
2019-04-26T09:30:15.161Z,15.50
2019-04-26T09:31:06.259Z,15.50
2019-04-26T09:31:50.640Z,15.60
2019-04-26T09:32:40.685Z,15.60
2019-04-26T09:33:26.570Z,15.70
2019-04-26T09:34:10.332Z,15.80
2019-04-26T09:34:45.456Z,15.70
2019-04-26T09:35:26.465Z,15.60
2019-04-26T09:36:05.934Z,15.50
2019-04-26T09:36:44.392Z,15.50
2019-04-26T09:37:25.763Z,15.50
2019-04-26T09:38:08.997Z,15.50
2019-04-26T09:38:51.217Z,15.50
2019-04-26T09:39:30.449Z,15.60
2019-04-26T09:40:10.969Z,15.70
2019-04-26T09:40:55.853Z,15.80
2019-04-26T09:41:35.534Z,15.90
2019-04-26T09:42:26.722Z,15.90
2019-04-26T09:43:33.393Z,16.00
2019-04-26T09:44:20.339Z,16.00
2019-04-26T09:45:13.987Z,15.90
2019-04-26T09:46:23.379Z,15.80
2019-04-26T09:47:16.395Z,15.80
2019-04-26T09:48:02.481Z,15.60
2019-04-26T09:48:44.872Z,15.60
2019-04-26T09:49:52.369Z,15.60
2019-04-26T09:50:49.926Z,15.70
2019-04-26T09:51:28.189Z,15.70
2019-04-26T09:52:07.779Z,15.70
2019-04-26T09:52:48.891Z,15.70
2019-04-26T09:53:26.913Z,15.70
2019-04-26T09:54:05.065Z,15.70
2019-04-26T09:54:43.466Z,15.80
2019-04-26T09:55:21.265Z,15.70
2019-04-26T09:55:58.633Z,15.70
2019-04-26T09:56:38.199Z,15.80
2019-04-26T09:57:15.612Z,15.80
2019-04-26T09:57:53.475Z,15.80
2019-04-26T09:58:33.047Z,15.70
2019-04-26T09:59:12.224Z,15.70
2019-04-26T09:59:49.091Z,15.60
2019-04-26T10:00:28.637Z,15.50
2019-04-26T10:01:08.734Z,15.50
2019-04-26T10:01:47.918Z,15.50
2019-04-26T10:02:29.491Z,15.50
2019-04-26T10:03:10.796Z,15.50
2019-04-26T10:03:50.265Z,15.50
2019-04-26T10:04:27.445Z,15.60
2019-04-26T10:05:08.152Z,15.70
2019-04-26T10:05:45.157Z,15.80
2019-04-26T10:06:22.485Z,15.90
2019-04-26T10:07:03.202Z,15.90
2019-04-26T10:07:39.109Z,16.00
2019-04-26T10:08:20.245Z,16.00
2019-04-26T10:08:58.065Z,16.10
2019-04-26T10:09:35.785Z,16.10
2019-04-26T10:10:22.617Z,16.10
2019-04-26T10:10:53.291Z,16.10
2019-04-26T10:11:39.608Z,16.10
2019-04-26T10:12:24.466Z,16.10
2019-04-26T10:13:19.561Z,16.20
2019-04-26T10:14:04.169Z,16.20
2019-04-26T10:15:01.264Z,16.20
2019-04-26T10:15:51.191Z,16.30
2019-04-26T10:16:37.621Z,16.20
2019-04-26T10:17:21.535Z,16.20
2019-04-26T10:17:59.525Z,16.20
2019-04-26T10:18:37.743Z,16.10
2019-04-26T10:19:18.939Z,16.10
2019-04-26T10:20:00.891Z,16.00
2019-04-26T10:20:38.681Z,15.90
2019-04-26T10:21:16.376Z,15.90
2019-04-26T10:21:53.795Z,15.90
2019-04-26T10:22:32.817Z,15.90
2019-04-26T10:23:09.633Z,15.80
2019-04-26T10:23:47.226Z,15.80
2019-04-26T10:24:24.985Z,15.80
2019-04-26T10:25:07.683Z,15.80
2019-04-26T10:25:42.923Z,15.80
2019-04-26T10:26:23.363Z,15.80
2019-04-26T10:27:03.429Z,15.80
2019-04-26T10:27:41.084Z,15.80
2019-04-26T10:28:19.869Z,15.80
2019-04-26T10:28:57.793Z,15.80
2019-04-26T10:29:35.349Z,15.90
2019-04-26T10:30:14.770Z,16.00
2019-04-26T10:30:52.200Z,16.10
2019-04-26T10:31:29.519Z,16.20
2019-04-26T10:32:09.455Z,16.20
2019-04-26T10:32:47.493Z,16.30
2019-04-26T10:33:26.616Z,16.40
2019-04-26T10:34:07.822Z,16.40
2019-04-26T10:34:47.329Z,16.40
2019-04-26T10:35:23.229Z,16.50
2019-04-26T10:36:00.285Z,16.60
2019-04-26T10:36:38.337Z,16.60
2019-04-26T10:37:15.381Z,16.60
2019-04-26T10:37:53.345Z,16.60
2019-04-26T10:38:33.075Z,16.60
2019-04-26T10:39:12.109Z,16.70
2019-04-26T10:39:49.487Z,16.70
2019-04-26T10:40:35.359Z,16.70
2019-04-26T10:41:06.852Z,16.70
2019-04-26T10:41:44.490Z,16.70